Terminal Aerodrome Forecast
Issued by NWS

Home | Current Version | Previous Version | Graphics & Text | Print | Product List | Glossary On
Versions: 1 2 3 4 5 6 7 8 9 10 11 12 13 14 15 16 17 18 19 20
000
FTUS43 KLSX 281132
TAFSUS
TAF
KSUS 281132Z 2812/2912 00000KT P6SM SCT250
      TEMPO 2812/2813 5SM BR
     FM281700 17004KT P6SM SCT035
     FM282000 21004KT P6SM VCTS SCT040CB BKN250
     FM290300 00000KT P6SM SCT250=

USA.gov is the U.S. government's official web portal to all federal, state and local government web resources and services.